sensor_id;sensor_type;location;lat;lon;timestamp;temperature;humidity
39019;DHT22;24786;51.984;5.872;2024-01-11T00:00:46;-3.30;99.90
39019;DHT22;24786;51.984;5.872;2024-01-11T00:03:11;-3.30;99.90
39019;DHT22;24786;51.984;5.872;2024-01-11T00:05:37;-3.30;99.90
39019;DHT22;24786;51.984;5.872;2024-01-11T00:08:04;-3.40;99.90
39019;DHT22;24786;51.984;5.872;2024-01-11T00:10:29;-3.40;99.90
39019;DHT22;24786;51.984;5.872;2024-01-11T00:12:55;-3.50;99.90
39019;DHT22;24786;51.984;5.872;2024-01-11T00:15:20;-3.50;99.90
39019;DHT22;24786;51.984;5.872;2024-01-11T00:17:45;-3.50;99.90
39019;DHT22;24786;51.984;5.872;2024-01-11T00:20:11;-3.50;99.90
39019;DHT22;24786;51.984;5.872;2024-01-11T00:22:36;-3.50;99.90
39019;DHT22;24786;51.984;5.872;2024-01-11T00:25:02;-3.50;99.90
39019;DHT22;24786;51.984;5.872;2024-01-11T00:27:28;-3.50;99.90
39019;DHT22;24786;51.984;5.872;2024-01-11T00:29:53;-3.50;99.90
39019;DHT22;24786;51.984;5.872;2024-01-11T00:32:19;-3.50;99.90
39019;DHT22;24786;51.984;5.872;2024-01-11T00:34:46;-3.60;99.90
39019;DHT22;24786;51.984;5.872;2024-01-11T00:37:12;-3.60;99.90
39019;DHT22;24786;51.984;5.872;2024-01-11T00:39:37;-3.60;99.90
39019;DHT22;24786;51.984;5.872;2024-01-11T00:42:03;-3.60;99.90
39019;DHT22;24786;51.984;5.872;2024-01-11T00:44:37;-3.70;99.90
39019;DHT22;24786;51.984;5.872;2024-01-11T00:47:03;-3.70;99.90
39019;DHT22;24786;51.984;5.872;2024-01-11T00:49:29;-3.70;99.90
39019;DHT22;24786;51.984;5.872;2024-01-11T00:51:54;-3.70;99.90
39019;DHT22;24786;51.984;5.872;2024-01-11T00:54:19;-3.70;99.90
39019;DHT22;24786;51.984;5.872;2024-01-11T00:56:45;-3.70;99.90
39019;DHT22;24786;51.984;5.872;2024-01-11T00:59:11;-3.70;99.90
39019;DHT22;24786;51.984;5.872;2024-01-11T01:01:36;-3.70;99.90
39019;DHT22;24786;51.984;5.872;2024-01-11T01:04:01;-3.80;99.90
39019;DHT22;24786;51.984;5.872;2024-01-11T01:06:27;-3.80;99.90
39019;DHT22;24786;51.984;5.872;2024-01-11T01:08:53;-3.80;99.90
39019;DHT22;24786;51.984;5.872;2024-01-11T01:11:19;-3.80;99.90
39019;DHT22;24786;51.984;5.872;2024-01-11T01:13:44;-3.90;99.90
39019;DHT22;24786;51.984;5.872;2024-01-11T01:16:10;-3.90;99.90
39019;DHT22;24786;51.984;5.872;2024-01-11T01:18:35;-3.90;99.90
39019;DHT22;24786;51.984;5.872;2024-01-11T01:21:01;-3.90;99.90
39019;DHT22;24786;51.984;5.872;2024-01-11T01:23:26;-4.00;99.90
39019;DHT22;24786;51.984;5.872;2024-01-11T01:25:51;-4.00;99.90
39019;DHT22;24786;51.984;5.872;2024-01-11T01:28:17;-4.10;99.90
39019;DHT22;24786;51.984;5.872;2024-01-11T01:30:42;-4.10;99.90
39019;DHT22;24786;51.984;5.872;2024-01-11T01:33:08;-4.20;99.90
39019;DHT22;24786;51.984;5.872;2024-01-11T01:35:33;-4.20;99.90
39019;DHT22;24786;51.984;5.872;2024-01-11T01:38:00;-4.10;99.90
39019;DHT22;24786;51.984;5.872;2024-01-11T01:40:25;-4.20;99.90
39019;DHT22;24786;51.984;5.872;2024-01-11T01:42:57;-4.20;99.90
39019;DHT22;24786;51.984;5.872;2024-01-11T01:45:22;-4.20;99.90
39019;DHT22;24786;51.984;5.872;2024-01-11T01:47:48;-4.20;99.90
39019;DHT22;24786;51.984;5.872;2024-01-11T01:50:13;-4.30;99.90
39019;DHT22;24786;51.984;5.872;2024-01-11T01:52:39;-4.30;99.90
39019;DHT22;24786;51.984;5.872;2024-01-11T01:55:06;-4.30;99.90
39019;DHT22;24786;51.984;5.872;2024-01-11T01:57:32;-4.30;99.90
39019;DHT22;24786;51.984;5.872;2024-01-11T01:59:59;-4.30;99.90
39019;DHT22;24786;51.984;5.872;2024-01-11T02:02:25;-4.30;99.90
39019;DHT22;24786;51.984;5.872;2024-01-11T02:04:52;-4.30;99.90
39019;DHT22;24786;51.984;5.872;2024-01-11T02:07:17;-4.30;99.90
39019;DHT22;24786;51.984;5.872;2024-01-11T02:09:43;-4.30;99.90
39019;DHT22;24786;51.984;5.872;2024-01-11T02:12:09;-4.30;99.90
39019;DHT22;24786;51.984;5.872;2024-01-11T02:14:37;-4.30;99.90
39019;DHT22;24786;51.984;5.872;2024-01-11T02:17:03;-4.40;99.90
39019;DHT22;24786;51.984;5.872;2024-01-11T02:19:28;-4.30;99.90
39019;DHT22;24786;51.984;5.872;2024-01-11T02:21:54;-4.30;99.90
39019;DHT22;24786;51.984;5.872;2024-01-11T02:24:20;-4.30;99.90
39019;DHT22;24786;51.984;5.872;2024-01-11T02:27:01;-4.30;99.90
39019;DHT22;24786;51.984;5.872;2024-01-11T02:29:27;-4.30;99.90
39019;DHT22;24786;51.984;5.872;2024-01-11T02:31:54;-4.40;99.90
39019;DHT22;24786;51.984;5.872;2024-01-11T02:34:19;-4.40;99.90
39019;DHT22;24786;51.984;5.872;2024-01-11T02:36:45;-4.40;99.90
39019;DHT22;24786;51.984;5.872;2024-01-11T02:39:10;-4.40;99.90
39019;DHT22;24786;51.984;5.872;2024-01-11T02:41:37;-4.50;99.90
39019;DHT22;24786;51.984;5.872;2024-01-11T02:44:05;-4.50;99.90
39019;DHT22;24786;51.984;5.872;2024-01-11T02:46:30;-4.50;99.90
39019;DHT22;24786;51.984;5.872;2024-01-11T02:48:56;-4.50;99.90
39019;DHT22;24786;51.984;5.872;2024-01-11T02:51:21;-4.50;99.90
39019;DHT22;24786;51.984;5.872;2024-01-11T02:53:46;-4.60;99.90
39019;DHT22;24786;51.984;5.872;2024-01-11T02:56:12;-4.60;99.90
39019;DHT22;24786;51.984;5.872;2024-01-11T02:58:37;-4.60;99.90
39019;DHT22;24786;51.984;5.872;2024-01-11T03:01:03;-4.70;99.90
39019;DHT22;24786;51.984;5.872;2024-01-11T03:03:28;-4.70;99.90
39019;DHT22;24786;51.984;5.872;2024-01-11T03:05:54;-4.80;99.90
39019;DHT22;24786;51.984;5.872;2024-01-11T03:08:19;-4.70;99.90
39019;DHT22;24786;51.984;5.872;2024-01-11T03:10:45;-4.80;99.90
39019;DHT22;24786;51.984;5.872;2024-01-11T03:13:10;-4.80;99.90
39019;DHT22;24786;51.984;5.872;2024-01-11T03:15:36;-4.80;99.90
39019;DHT22;24786;51.984;5.872;2024-01-11T03:18:01;-4.90;99.90
39019;DHT22;24786;51.984;5.872;2024-01-11T03:20:27;-4.90;99.90
39019;DHT22;24786;51.984;5.872;2024-01-11T03:22:52;-4.90;99.90
39019;DHT22;24786;51.984;5.872;2024-01-11T03:25:18;-4.90;99.90
39019;DHT22;24786;51.984;5.872;2024-01-11T03:27:43;-4.90;99.90
39019;DHT22;24786;51.984;5.872;2024-01-11T03:30:09;-4.90;99.90
39019;DHT22;24786;51.984;5.872;2024-01-11T03:32:34;-4.90;99.90
39019;DHT22;24786;51.984;5.872;2024-01-11T03:35:00;-4.90;99.90
39019;DHT22;24786;51.984;5.872;2024-01-11T03:37:25;-4.90;99.90
39019;DHT22;24786;51.984;5.872;2024-01-11T03:39:50;-4.90;99.90
39019;DHT22;24786;51.984;5.872;2024-01-11T03:42:16;-4.80;99.90
39019;DHT22;24786;51.984;5.872;2024-01-11T03:44:41;-4.80;99.90
39019;DHT22;24786;51.984;5.872;2024-01-11T03:47:07;-4.80;99.90
39019;DHT22;24786;51.984;5.872;2024-01-11T03:49:33;-4.80;99.90
39019;DHT22;24786;51.984;5.872;2024-01-11T03:51:58;-4.80;99.90
39019;DHT22;24786;51.984;5.872;2024-01-11T03:54:24;-4.80;99.90
39019;DHT22;24786;51.984;5.872;2024-01-11T03:56:49;-4.90;99.90
39019;DHT22;24786;51.984;5.872;2024-01-11T03:59:15;-4.90;99.90
39019;DHT22;24786;51.984;5.872;2024-01-11T04:01:41;-4.90;99.90
39019;DHT22;24786;51.984;5.872;2024-01-11T04:04:06;-4.90;99.90
39019;DHT22;24786;51.984;5.872;2024-01-11T04:06:32;-5.00;99.90
39019;DHT22;24786;51.984;5.872;2024-01-11T04:08:57;-4.90;99.90
39019;DHT22;24786;51.984;5.872;2024-01-11T04:11:23;-5.00;99.90
39019;DHT22;24786;51.984;5.872;2024-01-11T04:13:52;-5.00;99.90
39019;DHT22;24786;51.984;5.872;2024-01-11T04:16:17;-5.00;99.90
39019;DHT22;24786;51.984;5.872;2024-01-11T04:18:43;-5.10;99.90
39019;DHT22;24786;51.984;5.872;2024-01-11T04:21:19;-5.10;99.90
39019;DHT22;24786;51.984;5.872;2024-01-11T04:23:44;-5.00;99.90
39019;DHT22;24786;51.984;5.872;2024-01-11T04:26:10;-5.10;99.90
39019;DHT22;24786;51.984;5.872;2024-01-11T04:28:36;-5.10;99.90
39019;DHT22;24786;51.984;5.872;2024-01-11T04:31:02;-5.10;99.90
39019;DHT22;24786;51.984;5.872;2024-01-11T04:33:27;-5.00;99.90
39019;DHT22;24786;51.984;5.872;2024-01-11T04:35:53;-5.00;99.90
39019;DHT22;24786;51.984;5.872;2024-01-11T04:38:18;-5.00;99.90
39019;DHT22;24786;51.984;5.872;2024-01-11T04:40:44;-5.00;99.90
39019;DHT22;24786;51.984;5.872;2024-01-11T04:43:09;-5.00;99.90
39019;DHT22;24786;51.984;5.872;2024-01-11T04:45:35;-5.10;99.90
39019;DHT22;24786;51.984;5.872;2024-01-11T04:48:01;-5.10;99.90
39019;DHT22;24786;51.984;5.872;2024-01-11T04:50:26;-5.10;99.90
39019;DHT22;24786;51.984;5.872;2024-01-11T04:52:52;-5.20;99.90
39019;DHT22;24786;51.984;5.872;2024-01-11T04:55:17;-5.10;99.90
39019;DHT22;24786;51.984;5.872;2024-01-11T04:57:43;-5.10;99.90
39019;DHT22;24786;51.984;5.872;2024-01-11T05:00:09;-5.10;99.90
39019;DHT22;24786;51.984;5.872;2024-01-11T05:02:35;-5.10;99.90
39019;DHT22;24786;51.984;5.872;2024-01-11T05:05:00;-5.00;99.90
39019;DHT22;24786;51.984;5.872;2024-01-11T05:07:27;-5.10;99.90
39019;DHT22;24786;51.984;5.872;2024-01-11T05:09:52;-5.10;99.90
39019;DHT22;24786;51.984;5.872;2024-01-11T05:12:17;-5.00;99.90
39019;DHT22;24786;51.984;5.872;2024-01-11T05:14:43;-5.10;99.90
39019;DHT22;24786;51.984;5.872;2024-01-11T05:17:08;-5.10;99.90
39019;DHT22;24786;51.984;5.872;2024-01-11T05:19:34;-5.10;99.90
39019;DHT22;24786;51.984;5.872;2024-01-11T05:21:59;-5.10;99.90
39019;DHT22;24786;51.984;5.872;2024-01-11T05:24:25;-5.20;99.90
39019;DHT22;24786;51.984;5.872;2024-01-11T05:26:50;-5.10;99.90
39019;DHT22;24786;51.984;5.872;2024-01-11T05:29:16;-5.10;99.90
39019;DHT22;24786;51.984;5.872;2024-01-11T05:31:41;-5.20;99.90
39019;DHT22;24786;51.984;5.872;2024-01-11T05:34:07;-5.20;99.90
39019;DHT22;24786;51.984;5.872;2024-01-11T05:36:34;-5.20;99.90
39019;DHT22;24786;51.984;5.872;2024-01-11T05:38:59;-5.20;99.90
39019;DHT22;24786;51.984;5.872;2024-01-11T05:41:25;-5.20;99.90
39019;DHT22;24786;51.984;5.872;2024-01-11T05:43:50;-5.20;99.90
39019;DHT22;24786;51.984;5.872;2024-01-11T05:46:16;-5.20;99.90
39019;DHT22;24786;51.984;5.872;2024-01-11T05:48:41;-5.20;99.90
39019;DHT22;24786;51.984;5.872;2024-01-11T05:51:08;-5.20;99.90
39019;DHT22;24786;51.984;5.872;2024-01-11T05:53:33;-5.20;99.90
39019;DHT22;24786;51.984;5.872;2024-01-11T05:56:01;-5.20;99.90
39019;DHT22;24786;51.984;5.872;2024-01-11T05:58:26;-5.20;99.90
39019;DHT22;24786;51.984;5.872;2024-01-11T06:00:51;-5.30;99.90
39019;DHT22;24786;51.984;5.872;2024-01-11T06:03:17;-5.30;99.90
39019;DHT22;24786;51.984;5.872;2024-01-11T06:05:42;-5.30;99.90
39019;DHT22;24786;51.984;5.872;2024-01-11T06:08:08;-5.30;99.90
39019;DHT22;24786;51.984;5.872;2024-01-11T06:10:33;-5.40;99.90
39019;DHT22;24786;51.984;5.872;2024-01-11T06:12:59;-5.40;99.90
39019;DHT22;24786;51.984;5.872;2024-01-11T06:15:24;-5.40;99.90
39019;DHT22;24786;51.984;5.872;2024-01-11T06:17:50;-5.40;99.90
39019;DHT22;24786;51.984;5.872;2024-01-11T06:20:15;-5.40;99.90
39019;DHT22;24786;51.984;5.872;2024-01-11T06:22:44;-5.40;99.90
39019;DHT22;24786;51.984;5.872;2024-01-11T06:25:09;-5.40;99.90
39019;DHT22;24786;51.984;5.872;2024-01-11T06:27:35;-5.40;99.90
39019;DHT22;24786;51.984;5.872;2024-01-11T06:30:00;-5.30;99.90
39019;DHT22;24786;51.984;5.872;2024-01-11T06:32:26;-5.30;99.90
39019;DHT22;24786;51.984;5.872;2024-01-11T06:34:51;-5.30;99.90
39019;DHT22;24786;51.984;5.872;2024-01-11T06:37:17;-5.30;99.90
39019;DHT22;24786;51.984;5.872;2024-01-11T06:39:42;-5.30;99.90
39019;DHT22;24786;51.984;5.872;2024-01-11T06:42:08;-5.30;99.90
39019;DHT22;24786;51.984;5.872;2024-01-11T06:44:33;-5.30;99.90
39019;DHT22;24786;51.984;5.872;2024-01-11T06:46:59;-5.30;99.90
39019;DHT22;24786;51.984;5.872;2024-01-11T06:49:26;-5.20;99.90
39019;DHT22;24786;51.984;5.872;2024-01-11T06:51:52;-5.30;99.90
39019;DHT22;24786;51.984;5.872;2024-01-11T06:54:17;-5.30;99.90
39019;DHT22;24786;51.984;5.872;2024-01-11T06:56:43;-5.30;99.90
39019;DHT22;24786;51.984;5.872;2024-01-11T06:59:09;-5.20;99.90
39019;DHT22;24786;51.984;5.872;2024-01-11T07:01:37;-5.30;99.90
39019;DHT22;24786;51.984;5.872;2024-01-11T07:04:02;-5.20;99.90
39019;DHT22;24786;51.984;5.872;2024-01-11T07:06:36;-5.20;99.90
39019;DHT22;24786;51.984;5.872;2024-01-11T07:09:02;-5.20;99.90
39019;DHT22;24786;51.984;5.872;2024-01-11T07:11:28;-5.20;99.90
39019;DHT22;24786;51.984;5.872;2024-01-11T07:13:56;-5.30;99.90
39019;DHT22;24786;51.984;5.872;2024-01-11T07:16:33;-5.30;99.90
39019;DHT22;24786;51.984;5.872;2024-01-11T07:18:59;-5.30;99.90
39019;DHT22;24786;51.984;5.872;2024-01-11T07:21:24;-5.30;99.90
39019;DHT22;24786;51.984;5.872;2024-01-11T07:23:59;-5.20;99.90
39019;DHT22;24786;51.984;5.872;2024-01-11T07:26:25;-5.20;99.90
39019;DHT22;24786;51.984;5.872;2024-01-11T07:28:59;-5.20;99.90
39019;DHT22;24786;51.984;5.872;2024-01-11T07:31:34;-5.20;99.90
39019;DHT22;24786;51.984;5.872;2024-01-11T07:33:59;-5.20;99.90
39019;DHT22;24786;51.984;5.872;2024-01-11T07:36:28;-5.20;99.90
39019;DHT22;24786;51.984;5.872;2024-01-11T07:38:54;-5.20;99.90
39019;DHT22;24786;51.984;5.872;2024-01-11T07:41:23;-5.20;99.90
39019;DHT22;24786;51.984;5.872;2024-01-11T07:43:49;-5.30;99.90
39019;DHT22;24786;51.984;5.872;2024-01-11T07:46:14;-5.30;99.90
39019;DHT22;24786;51.984;5.872;2024-01-11T07:48:40;-5.30;99.90
39019;DHT22;24786;51.984;5.872;2024-01-11T07:51:11;-5.30;99.90
39019;DHT22;24786;51.984;5.872;2024-01-11T07:53:42;-5.30;99.90
39019;DHT22;24786;51.984;5.872;2024-01-11T07:56:08;-5.30;99.90
39019;DHT22;24786;51.984;5.872;2024-01-11T07:58:33;-5.30;99.90
39019;DHT22;24786;51.984;5.872;2024-01-11T08:01:01;-5.30;99.90
39019;DHT22;24786;51.984;5.872;2024-01-11T08:03:26;-5.20;99.90
39019;DHT22;24786;51.984;5.872;2024-01-11T08:05:58;-5.30;99.90
39019;DHT22;24786;51.984;5.872;2024-01-11T08:08:25;-5.30;99.90
39019;DHT22;24786;51.984;5.872;2024-01-11T08:11:00;-5.30;99.90
39019;DHT22;24786;51.984;5.872;2024-01-11T08:13:26;-5.30;99.90
39019;DHT22;24786;51.984;5.872;2024-01-11T08:15:54;-5.30;99.90
39019;DHT22;24786;51.984;5.872;2024-01-11T08:18:22;-5.20;99.90
39019;DHT22;24786;51.984;5.872;2024-01-11T08:20:48;-5.10;99.90
39019;DHT22;24786;51.984;5.872;2024-01-11T08:23:15;-5.10;99.90
39019;DHT22;24786;51.984;5.872;2024-01-11T08:25:43;-5.10;99.90
39019;DHT22;24786;51.984;5.872;2024-01-11T08:28:09;-5.00;99.90
39019;DHT22;24786;51.984;5.872;2024-01-11T08:30:34;-5.00;99.90
39019;DHT22;24786;51.984;5.872;2024-01-11T08:33:00;-4.90;99.90
39019;DHT22;24786;51.984;5.872;2024-01-11T08:35:25;-5.00;99.90
39019;DHT22;24786;51.984;5.872;2024-01-11T08:37:51;-4.90;99.90
39019;DHT22;24786;51.984;5.872;2024-01-11T08:40:17;-4.90;99.90
39019;DHT22;24786;51.984;5.872;2024-01-11T08:42:42;-4.80;99.90
39019;DHT22;24786;51.984;5.872;2024-01-11T08:45:08;-4.80;99.90
39019;DHT22;24786;51.984;5.872;2024-01-11T08:47:34;-4.80;99.90
39019;DHT22;24786;51.984;5.872;2024-01-11T08:50:00;-4.70;99.90
39019;DHT22;24786;51.984;5.872;2024-01-11T08:52:25;-4.70;99.90
39019;DHT22;24786;51.984;5.872;2024-01-11T08:54:51;-4.60;99.90
39019;DHT22;24786;51.984;5.872;2024-01-11T08:57:16;-4.60;99.90
39019;DHT22;24786;51.984;5.872;2024-01-11T08:59:42;-4.60;99.90
39019;DHT22;24786;51.984;5.872;2024-01-11T09:02:07;-4.60;99.90
39019;DHT22;24786;51.984;5.872;2024-01-11T09:04:33;-4.50;99.90
39019;DHT22;24786;51.984;5.872;2024-01-11T09:09:27;-4.50;99.90
39019;DHT22;24786;51.984;5.872;2024-01-11T09:11:52;-4.50;99.90
39019;DHT22;24786;51.984;5.872;2024-01-11T09:14:18;-4.40;99.90
39019;DHT22;24786;51.984;5.872;2024-01-11T09:16:43;-4.30;99.90
39019;DHT22;24786;51.984;5.872;2024-01-11T09:19:11;-4.30;99.90
39019;DHT22;24786;51.984;5.872;2024-01-11T09:21:37;-4.20;99.90
39019;DHT22;24786;51.984;5.872;2024-01-11T09:24:02;-4.20;99.90
39019;DHT22;24786;51.984;5.872;2024-01-11T09:26:28;-4.10;99.90
39019;DHT22;24786;51.984;5.872;2024-01-11T09:28:53;-4.00;99.90
39019;DHT22;24786;51.984;5.872;2024-01-11T09:31:19;-4.00;99.90
39019;DHT22;24786;51.984;5.872;2024-01-11T09:33:44;-3.90;99.90
39019;DHT22;24786;51.984;5.872;2024-01-11T09:36:16;-3.80;99.90
39019;DHT22;24786;51.984;5.872;2024-01-11T09:38:44;-3.80;99.90
39019;DHT22;24786;51.984;5.872;2024-01-11T09:41:12;-3.70;99.90
39019;DHT22;24786;51.984;5.872;2024-01-11T09:43:39;-3.70;99.90
39019;DHT22;24786;51.984;5.872;2024-01-11T09:46:15;-3.60;99.90
39019;DHT22;24786;51.984;5.872;2024-01-11T09:48:42;-3.60;99.90
39019;DHT22;24786;51.984;5.872;2024-01-11T09:51:09;-3.50;99.90
39019;DHT22;24786;51.984;5.872;2024-01-11T09:53:45;-3.50;99.90
39019;DHT22;24786;51.984;5.872;2024-01-11T09:56:22;-3.40;99.90
39019;DHT22;24786;51.984;5.872;2024-01-11T09:58:54;-3.30;99.90
39019;DHT22;24786;51.984;5.872;2024-01-11T10:01:20;-3.30;99.90
39019;DHT22;24786;51.984;5.872;2024-01-11T10:03:47;-3.10;99.90
39019;DHT22;24786;51.984;5.872;2024-01-11T10:06:15;-3.10;99.90
39019;DHT22;24786;51.984;5.872;2024-01-11T10:08:42;-3.10;99.90
39019;DHT22;24786;51.984;5.872;2024-01-11T10:11:08;-3.00;99.90
39019;DHT22;24786;51.984;5.872;2024-01-11T10:13:36;-2.90;99.90
39019;DHT22;24786;51.984;5.872;2024-01-11T10:16:06;-2.70;99.90
39019;DHT22;24786;51.984;5.872;2024-01-11T10:18:32;-2.80;99.90
39019;DHT22;24786;51.984;5.872;2024-01-11T10:20:58;-2.80;99.90
39019;DHT22;24786;51.984;5.872;2024-01-11T10:23:23;-2.70;99.90
39019;DHT22;24786;51.984;5.872;2024-01-11T10:25:49;-2.70;99.90
39019;DHT22;24786;51.984;5.872;2024-01-11T10:28:14;-2.60;99.90
39019;DHT22;24786;51.984;5.872;2024-01-11T10:30:41;-2.60;99.90
39019;DHT22;24786;51.984;5.872;2024-01-11T10:33:06;-2.50;99.90
39019;DHT22;24786;51.984;5.872;2024-01-11T10:35:32;-2.50;99.90
39019;DHT22;24786;51.984;5.872;2024-01-11T10:37:57;-2.40;99.90
39019;DHT22;24786;51.984;5.872;2024-01-11T10:40:23;-2.40;99.90
39019;DHT22;24786;51.984;5.872;2024-01-11T10:43:01;-2.30;99.90
39019;DHT22;24786;51.984;5.872;2024-01-11T10:45:36;-2.30;99.90
39019;DHT22;24786;51.984;5.872;2024-01-11T10:48:11;-2.20;99.90
39019;DHT22;24786;51.984;5.872;2024-01-11T10:50:38;-2.10;99.90
39019;DHT22;24786;51.984;5.872;2024-01-11T10:53:17;-2.10;99.90
39019;DHT22;24786;51.984;5.872;2024-01-11T10:55:47;-2.10;99.90
39019;DHT22;24786;51.984;5.872;2024-01-11T10:58:25;-2.00;99.90
39019;DHT22;24786;51.984;5.872;2024-01-11T11:00:52;-1.90;99.90
39019;DHT22;24786;51.984;5.872;2024-01-11T11:03:19;-1.80;99.90
39019;DHT22;24786;51.984;5.872;2024-01-11T11:05:45;-1.70;99.90
39019;DHT22;24786;51.984;5.872;2024-01-11T11:08:11;-1.60;99.90
39019;DHT22;24786;51.984;5.872;2024-01-11T11:10:43;-1.60;99.90
39019;DHT22;24786;51.984;5.872;2024-01-11T11:13:10;-1.60;99.90
39019;DHT22;24786;51.984;5.872;2024-01-11T11:15:40;-1.50;99.90
39019;DHT22;24786;51.984;5.872;2024-01-11T11:21:10;-1.40;99.90
39019;DHT22;24786;51.984;5.872;2024-01-11T11:23:38;-1.40;99.90
39019;DHT22;24786;51.984;5.872;2024-01-11T11:26:05;-1.30;99.90
39019;DHT22;24786;51.984;5.872;2024-01-11T11:28:31;-1.30;99.90
39019;DHT22;24786;51.984;5.872;2024-01-11T11:30:57;-1.30;99.90
39019;DHT22;24786;51.984;5.872;2024-01-11T11:33:25;-1.20;99.90
39019;DHT22;24786;51.984;5.872;2024-01-11T11:35:54;-1.20;99.90
39019;DHT22;24786;51.984;5.872;2024-01-11T11:38:21;-1.10;99.90
39019;DHT22;24786;51.984;5.872;2024-01-11T11:40:47;-1.10;99.90
39019;DHT22;24786;51.984;5.872;2024-01-11T11:43:15;-1.10;99.90
39019;DHT22;24786;51.984;5.872;2024-01-11T11:45:41;-1.00;99.90
39019;DHT22;24786;51.984;5.872;2024-01-11T11:51:00;-0.90;99.90
39019;DHT22;24786;51.984;5.872;2024-01-11T11:53:26;-0.90;99.90
39019;DHT22;24786;51.984;5.872;2024-01-11T11:55:51;-0.80;99.90
39019;DHT22;24786;51.984;5.872;2024-01-11T11:58:17;-0.80;99.90
39019;DHT22;24786;51.984;5.872;2024-01-11T12:00:42;-0.70;99.90
39019;DHT22;24786;51.984;5.872;2024-01-11T12:03:08;-0.70;99.90
39019;DHT22;24786;51.984;5.872;2024-01-11T12:05:37;-0.70;99.90
39019;DHT22;24786;51.984;5.872;2024-01-11T12:08:06;-0.60;99.90
39019;DHT22;24786;51.984;5.872;2024-01-11T12:10:31;-0.60;99.90
39019;DHT22;24786;51.984;5.872;2024-01-11T12:12:57;-0.50;99.90
39019;DHT22;24786;51.984;5.872;2024-01-11T12:15:22;-0.50;99.90
39019;DHT22;24786;51.984;5.872;2024-01-11T12:17:48;-0.40;99.90
39019;DHT22;24786;51.984;5.872;2024-01-11T12:20:13;-0.40;99.90
39019;DHT22;24786;51.984;5.872;2024-01-11T12:22:39;-0.40;99.90
39019;DHT22;24786;51.984;5.872;2024-01-11T12:25:05;-0.30;99.90
39019;DHT22;24786;51.984;5.872;2024-01-11T12:27:31;-0.30;99.90
39019;DHT22;24786;51.984;5.872;2024-01-11T12:29:56;-0.20;99.90
39019;DHT22;24786;51.984;5.872;2024-01-11T12:32:22;-0.20;99.90
39019;DHT22;24786;51.984;5.872;2024-01-11T12:34:47;-0.20;99.90
39019;DHT22;24786;51.984;5.872;2024-01-11T12:37:14;-0.20;99.90
39019;DHT22;24786;51.984;5.872;2024-01-11T12:39:40;-0.10;99.90
39019;DHT22;24786;51.984;5.872;2024-01-11T12:42:05;-0.10;99.90
39019;DHT22;24786;51.984;5.872;2024-01-11T12:44:31;-0.10;99.90
39019;DHT22;24786;51.984;5.872;2024-01-11T12:46:58;0.00;99.90
39019;DHT22;24786;51.984;5.872;2024-01-11T12:49:23;0.00;99.90
39019;DHT22;24786;51.984;5.872;2024-01-11T12:51:49;0.00;99.90
39019;DHT22;24786;51.984;5.872;2024-01-11T12:54:15;0.10;99.90
39019;DHT22;24786;51.984;5.872;2024-01-11T12:56:43;0.10;99.90
39019;DHT22;24786;51.984;5.872;2024-01-11T12:59:09;0.10;99.90
39019;DHT22;24786;51.984;5.872;2024-01-11T13:01:39;0.20;99.90
39019;DHT22;24786;51.984;5.872;2024-01-11T13:04:05;0.20;99.90
39019;DHT22;24786;51.984;5.872;2024-01-11T13:06:31;0.20;99.90
39019;DHT22;24786;51.984;5.872;2024-01-11T13:08:56;0.20;99.90
39019;DHT22;24786;51.984;5.872;2024-01-11T13:11:22;0.30;99.90
39019;DHT22;24786;51.984;5.872;2024-01-11T13:13:49;0.30;99.90
39019;DHT22;24786;51.984;5.872;2024-01-11T13:16:15;0.30;99.90
39019;DHT22;24786;51.984;5.872;2024-01-11T13:18:41;0.40;99.90
39019;DHT22;24786;51.984;5.872;2024-01-11T13:21:06;0.40;99.90
39019;DHT22;24786;51.984;5.872;2024-01-11T13:23:32;0.40;99.90
39019;DHT22;24786;51.984;5.872;2024-01-11T13:25:58;0.40;99.90
39019;DHT22;24786;51.984;5.872;2024-01-11T13:28:24;0.50;99.90
39019;DHT22;24786;51.984;5.872;2024-01-11T13:30:49;0.50;99.90
39019;DHT22;24786;51.984;5.872;2024-01-11T13:33:15;0.50;99.90
39019;DHT22;24786;51.984;5.872;2024-01-11T13:35:46;0.50;99.90
39019;DHT22;24786;51.984;5.872;2024-01-11T13:38:12;0.50;99.90
39019;DHT22;24786;51.984;5.872;2024-01-11T13:40:37;0.60;99.90
39019;DHT22;24786;51.984;5.872;2024-01-11T13:43:05;0.60;99.90
39019;DHT22;24786;51.984;5.872;2024-01-11T13:45:30;0.60;99.90
39019;DHT22;24786;51.984;5.872;2024-01-11T13:47:59;0.60;99.90
39019;DHT22;24786;51.984;5.872;2024-01-11T13:50:39;0.60;99.90
39019;DHT22;24786;51.984;5.872;2024-01-11T13:53:05;0.60;99.90
39019;DHT22;24786;51.984;5.872;2024-01-11T13:55:32;0.60;99.90
39019;DHT22;24786;51.984;5.872;2024-01-11T13:58:03;0.60;99.90
39019;DHT22;24786;51.984;5.872;2024-01-11T14:00:37;0.60;99.90
39019;DHT22;24786;51.984;5.872;2024-01-11T14:03:03;0.60;99.90
39019;DHT22;24786;51.984;5.872;2024-01-11T14:05:30;0.60;99.90
39019;DHT22;24786;51.984;5.872;2024-01-11T14:07:55;0.60;99.90
39019;DHT22;24786;51.984;5.872;2024-01-11T14:10:24;0.60;99.90
39019;DHT22;24786;51.984;5.872;2024-01-11T14:12:49;0.60;99.90
39019;DHT22;24786;51.984;5.872;2024-01-11T14:15:15;0.60;99.90
39019;DHT22;24786;51.984;5.872;2024-01-11T14:17:42;0.60;99.90
39019;DHT22;24786;51.984;5.872;2024-01-11T14:20:07;0.60;99.90
39019;DHT22;24786;51.984;5.872;2024-01-11T14:22:37;0.60;99.90
39019;DHT22;24786;51.984;5.872;2024-01-11T14:25:03;0.60;99.90
39019;DHT22;24786;51.984;5.872;2024-01-11T14:27:28;0.70;99.90
39019;DHT22;24786;51.984;5.872;2024-01-11T14:29:56;0.60;99.90
39019;DHT22;24786;51.984;5.872;2024-01-11T14:32:21;0.60;99.90
39019;DHT22;24786;51.984;5.872;2024-01-11T14:34:47;0.60;99.90
39019;DHT22;24786;51.984;5.872;2024-01-11T14:37:12;0.60;99.90
39019;DHT22;24786;51.984;5.872;2024-01-11T14:39:41;0.60;99.90
39019;DHT22;24786;51.984;5.872;2024-01-11T14:42:18;0.60;99.90
39019;DHT22;24786;51.984;5.872;2024-01-11T14:44:44;0.60;99.90
39019;DHT22;24786;51.984;5.872;2024-01-11T14:47:25;0.70;99.90
39019;DHT22;24786;51.984;5.872;2024-01-11T14:49:53;0.60;99.90
39019;DHT22;24786;51.984;5.872;2024-01-11T14:52:38;0.60;99.90
39019;DHT22;24786;51.984;5.872;2024-01-11T14:58:16;0.60;99.90
39019;DHT22;24786;51.984;5.872;2024-01-11T15:00:44;0.60;99.90
39019;DHT22;24786;51.984;5.872;2024-01-11T15:03:09;0.60;99.90
39019;DHT22;24786;51.984;5.872;2024-01-11T15:05:35;0.60;99.90
39019;DHT22;24786;51.984;5.872;2024-01-11T15:08:01;0.60;99.90
39019;DHT22;24786;51.984;5.872;2024-01-11T15:10:27;0.60;99.90
39019;DHT22;24786;51.984;5.872;2024-01-11T15:12:53;0.60;99.90
39019;DHT22;24786;51.984;5.872;2024-01-11T15:15:18;0.60;99.90
39019;DHT22;24786;51.984;5.872;2024-01-11T15:17:44;0.50;99.90
39019;DHT22;24786;51.984;5.872;2024-01-11T15:20:09;0.60;99.90
39019;DHT22;24786;51.984;5.872;2024-01-11T15:22:35;0.60;99.90
39019;DHT22;24786;51.984;5.872;2024-01-11T15:25:01;0.50;99.90
39019;DHT22;24786;51.984;5.872;2024-01-11T15:27:26;0.50;99.90
39019;DHT22;24786;51.984;5.872;2024-01-11T15:29:52;0.50;99.90
39019;DHT22;24786;51.984;5.872;2024-01-11T15:32:17;0.50;99.90
39019;DHT22;24786;51.984;5.872;2024-01-11T15:50:07;0.50;99.90
39019;DHT22;24786;51.984;5.872;2024-01-11T15:52:38;0.50;99.90
39019;DHT22;24786;51.984;5.872;2024-01-11T15:55:04;0.50;99.90